Time;durP1;ratioP1;P1;durP2;ratioP2;P2;SDS_P1;SDS_P2;PMS_P1;PMS_P2;Temp;Humidity;BMP_temperature;BMP_pressure;BME280_temperature;BME280_humidity;BME280_pressure;Samples;Min_cycle;Max_cycle;Signal;HPM_P1;HPM_P2
2023/01/07 00:01:02;;;;;;;;;3.50;3.50;;;;;;;;5119488;27;45414;-74
2023/01/07 00:03:27;;;;;;;;;2.25;2.25;;;;;;;;5119678;27;45487;-74
2023/01/07 00:05:57;;;;;;;;;3.75;2.25;;;;;;;;5116355;27;46197;-74
2023/01/07 00:08:22;;;;;;;;;3.00;3.00;;;;;;;;5119313;27;45320;-74
2023/01/07 00:10:47;;;;;;;;;2.25;2.00;;;;;;;;5118996;27;46618;-74
2023/01/07 00:13:12;;;;;;;;;2.25;2.25;;;;;;;;5119040;27;45328;-74
2023/01/07 00:15:38;;;;;;;;;2.25;2.00;;;;;;;;5118519;27;46085;-74
2023/01/07 00:18:03;;;;;;;;;5.00;2.50;;;;;;;;5119500;27;45545;-74
2023/01/07 00:20:28;;;;;;;;;2.00;2.00;;;;;;;;5112728;27;45497;-74
2023/01/07 00:22:53;;;;;;;;;1.25;1.25;;;;;;;;5115278;27;45458;-74
2023/01/07 00:25:19;;;;;;;;;2.00;2.00;;;;;;;;5117885;27;46139;-75
2023/01/07 00:27:44;;;;;;;;;1.25;1.25;;;;;;;;5118765;27;45459;-75
2023/01/07 00:30:10;;;;;;;;;2.50;2.00;;;;;;;;5119053;27;45387;-76
2023/01/07 00:35:22;;;;;;;;;2.00;1.00;;;;;;;;5114961;27;45793;-74
2023/01/07 00:37:48;;;;;;;;;2.25;2.25;;;;;;;;5117022;27;45360;-74
2023/01/07 00:40:13;;;;;;;;;1.00;1.00;;;;;;;;5119444;27;45357;-74
2023/01/07 00:42:54;;;;;;;;;2.50;2.50;;;;;;;;5118270;27;45316;-74
2023/01/07 00:45:23;;;;;;;;;3.50;3.00;;;;;;;;5117360;27;45290;-73
2023/01/07 00:47:52;;;;;;;;;2.00;2.00;;;;;;;;5115847;27;45328;-73
2023/01/07 00:50:17;;;;;;;;;2.00;2.00;;;;;;;;5121721;27;45493;-73
2023/01/07 00:52:43;;;;;;;;;2.50;1.50;;;;;;;;5131036;27;45518;-73
2023/01/07 00:55:09;;;;;;;;;2.00;2.00;;;;;;;;5127949;27;46149;-73
2023/01/07 00:57:35;;;;;;;;;2.00;2.00;;;;;;;;5123831;27;45322;-73
2023/01/07 01:00:00;;;;;;;;;2.50;2.00;;;;;;;;5134858;27;45413;-72
2023/01/07 01:02:25;;;;;;;;;2.00;2.00;;;;;;;;5122097;27;45411;-75
2023/01/07 01:04:50;;;;;;;;;1.75;1.00;;;;;;;;5129399;27;46190;-76
2023/01/07 01:07:16;;;;;;;;;2.75;2.00;;;;;;;;5129720;27;45426;-73
2023/01/07 01:09:41;;;;;;;;;1.25;1.25;;;;;;;;5123173;27;45506;-74
2023/01/07 01:12:06;;;;;;;;;1.00;1.00;;;;;;;;5133123;27;45511;-74
2023/01/07 01:14:31;;;;;;;;;2.00;2.00;;;;;;;;5108235;27;45454;-74
2023/01/07 01:16:56;;;;;;;;;2.00;2.00;;;;;;;;5122974;27;45373;-74
2023/01/07 01:19:22;;;;;;;;;1.75;1.75;;;;;;;;5129854;27;45526;-74
2023/01/07 01:21:47;;;;;;;;;2.50;2.00;;;;;;;;5116365;27;45448;-73
2023/01/07 01:24:12;;;;;;;;;2.50;2.50;;;;;;;;5125908;27;46328;-74
2023/01/07 01:26:37;;;;;;;;;2.00;2.00;;;;;;;;5131165;27;45525;-74
2023/01/07 01:29:03;;;;;;;;;1.00;1.00;;;;;;;;5117790;27;45438;-74
2023/01/07 01:31:28;;;;;;;;;2.00;2.00;;;;;;;;5117905;27;45267;-74
2023/01/07 01:33:54;;;;;;;;;1.00;1.00;;;;;;;;5117097;27;45604;-74
2023/01/07 01:36:19;;;;;;;;;0.50;0.50;;;;;;;;5116191;27;45953;-74
2023/01/07 01:38:44;;;;;;;;;1.00;1.00;;;;;;;;5113719;27;45465;-74
2023/01/07 01:41:11;;;;;;;;;0.75;0.75;;;;;;;;5113048;27;45912;-73
2023/01/07 01:43:38;;;;;;;;;1.00;1.00;;;;;;;;5117768;27;45434;-74
2023/01/07 01:46:13;;;;;;;;;1.00;1.00;;;;;;;;5116152;27;45451;-74
2023/01/07 01:48:42;;;;;;;;;2.25;1.00;;;;;;;;5116045;27;45420;-74
2023/01/07 01:51:08;;;;;;;;;1.25;1.00;;;;;;;;5114463;27;45653;-74
2023/01/07 01:53:34;;;;;;;;;1.00;1.00;;;;;;;;5107693;27;46167;-74
2023/01/07 01:56:12;;;;;;;;;1.25;1.25;;;;;;;;5116453;27;45398;-74
2023/01/07 01:58:40;;;;;;;;;1.25;1.25;;;;;;;;5100257;27;45500;-74
2023/01/07 02:01:06;;;;;;;;;1.00;1.00;;;;;;;;5105763;27;45690;-75
2023/01/07 02:03:32;;;;;;;;;2.00;1.00;;;;;;;;5106924;27;47388;-74
2023/01/07 02:05:58;;;;;;;;;1.00;1.00;;;;;;;;5111416;27;45414;-74
2023/01/07 02:08:24;;;;;;;;;1.00;1.00;;;;;;;;5116257;27;45435;-74
2023/01/07 02:11:12;;;;;;;;;1.00;1.00;;;;;;;;5116868;27;45307;-74
2023/01/07 02:13:37;;;;;;;;;1.50;1.50;;;;;;;;5111132;27;45570;-74
2023/01/07 02:16:08;;;;;;;;;0.75;0.75;;;;;;;;5116850;27;45764;-74
2023/01/07 02:18:36;;;;;;;;;0.00;0.00;;;;;;;;5117103;27;45467;-74
2023/01/07 02:21:01;;;;;;;;;1.75;1.00;;;;;;;;5116793;27;45340;-74
2023/01/07 02:23:47;;;;;;;;;0.75;0.75;;;;;;;;5116536;27;46759;-74
2023/01/07 02:26:15;;;;;;;;;1.25;1.25;;;;;;;;5117088;27;45519;-75
2023/01/07 02:28:52;;;;;;;;;1.75;1.75;;;;;;;;5117070;27;45611;-75
2023/01/07 02:31:20;;;;;;;;;1.00;1.00;;;;;;;;5116337;27;45539;-75
2023/01/07 02:34:17;;;;;;;;;0.75;0.75;;;;;;;;5116723;27;45425;-75
2023/01/07 02:36:42;;;;;;;;;2.00;1.00;;;;;;;;5073552;28;45529;-75
2023/01/07 02:39:10;;;;;;;;;0.50;0.50;;;;;;;;5073497;27;45571;-75
2023/01/07 02:41:42;;;;;;;;;1.00;1.00;;;;;;;;5056656;28;45705;-74
2023/01/07 02:44:09;;;;;;;;;0.75;0.75;;;;;;;;5073409;28;46146;-75
2023/01/07 02:46:44;;;;;;;;;1.00;1.00;;;;;;;;5073987;27;45571;-75
2023/01/07 02:49:13;;;;;;;;;1.00;1.00;;;;;;;;5068576;27;45558;-75
2023/01/07 02:51:39;;;;;;;;;0.75;0.00;;;;;;;;5065598;28;45521;-75
2023/01/07 02:54:06;;;;;;;;;1.00;1.00;;;;;;;;5074366;28;45363;-75
2023/01/07 02:56:50;;;;;;;;;1.00;0.00;;;;;;;;5074057;28;45362;-75
2023/01/07 02:59:25;;;;;;;;;1.50;1.50;;;;;;;;5073075;28;45315;-74
2023/01/07 03:02:02;;;;;;;;;1.00;1.00;;;;;;;;5061569;28;45644;-75
2023/01/07 03:04:37;;;;;;;;;0.00;0.00;;;;;;;;5073324;28;45720;-74
2023/01/07 03:07:20;;;;;;;;;1.00;1.00;;;;;;;;5072470;28;45367;-74
2023/01/07 03:09:54;;;;;;;;;0.00;0.00;;;;;;;;5072943;28;45367;-75
2023/01/07 03:12:35;;;;;;;;;2.00;0.50;;;;;;;;5094282;27;45507;-74
2023/01/07 03:15:06;;;;;;;;;1.00;1.00;;;;;;;;5115781;27;45521;-73
2023/01/07 03:17:36;;;;;;;;;0.00;0.00;;;;;;;;5116293;27;45362;-74
2023/01/07 03:20:03;;;;;;;;;1.00;1.00;;;;;;;;5116330;27;45472;-74
2023/01/07 03:22:30;;;;;;;;;1.00;1.00;;;;;;;;5112653;27;45523;-74
2023/01/07 03:24:57;;;;;;;;;1.33;0.00;;;;;;;;5109992;27;47726;-74
2023/01/07 03:27:23;;;;;;;;;2.00;1.00;;;;;;;;5115957;27;45359;-74
2023/01/07 03:29:51;;;;;;;;;0.00;0.00;;;;;;;;5114583;27;45440;-74
2023/01/07 03:32:16;;;;;;;;;0.50;0.50;;;;;;;;5115812;27;45400;-74
2023/01/07 03:34:42;;;;;;;;;1.25;1.25;;;;;;;;5115854;27;46295;-74
2023/01/07 03:37:15;;;;;;;;;0.00;0.00;;;;;;;;5115839;27;45343;-74
2023/01/07 03:39:41;;;;;;;;;0.00;0.00;;;;;;;;5115550;27;45446;-74
2023/01/07 03:44:51;;;;;;;;;1.00;1.00;;;;;;;;5102821;27;45442;-73
2023/01/07 03:47:16;;;;;;;;;0.00;0.00;;;;;;;;5107695;27;45335;-75
2023/01/07 03:49:42;;;;;;;;;0.00;0.00;;;;;;;;5102587;27;45462;-74
2023/01/07 03:52:07;;;;;;;;;1.00;1.00;;;;;;;;5095179;27;45453;-74
2023/01/07 03:54:32;;;;;;;;;0.00;0.00;;;;;;;;5109670;27;46284;-74
2023/01/07 03:56:57;;;;;;;;;2.00;0.00;;;;;;;;5115608;27;45299;-74
2023/01/07 03:59:23;;;;;;;;;0.00;0.00;;;;;;;;5113638;27;45477;-74
2023/01/07 04:01:48;;;;;;;;;0.00;0.00;;;;;;;;5103273;27;45357;-74
2023/01/07 04:04:13;;;;;;;;;1.00;1.00;;;;;;;;5108059;27;46347;-74
2023/01/07 04:06:38;;;;;;;;;1.00;1.00;;;;;;;;5114994;27;45417;-74
2023/01/07 04:09:03;;;;;;;;;2.00;1.00;;;;;;;;5114760;27;45250;-74
2023/01/07 04:11:29;;;;;;;;;0.25;0.25;;;;;;;;5112291;27;45474;-75
2023/01/07 04:13:56;;;;;;;;;0.00;0.00;;;;;;;;5103901;27;45574;-74
2023/01/07 04:16:21;;;;;;;;;1.00;1.00;;;;;;;;5094266;27;45350;-74
2023/01/07 04:18:46;;;;;;;;;0.67;0.67;;;;;;;;5112183;27;45408;-75
2023/01/07 04:21:11;;;;;;;;;0.50;0.50;;;;;;;;5119004;27;45290;-74
2023/01/07 04:23:36;;;;;;;;;1.00;1.00;;;;;;;;5118855;27;45460;-75
2023/01/07 04:26:01;;;;;;;;;0.00;0.00;;;;;;;;5110698;27;45301;-74
2023/01/07 04:28:27;;;;;;;;;1.00;0.00;;;;;;;;5098292;27;45331;-73
2023/01/07 04:30:52;;;;;;;;;0.00;0.00;;;;;;;;5115910;27;45643;-74
2023/01/07 04:33:17;;;;;;;;;0.00;0.00;;;;;;;;5118379;27;45430;-73
2023/01/07 04:35:44;;;;;;;;;0.75;0.75;;;;;;;;5111875;27;45401;-75
2023/01/07 04:38:09;;;;;;;;;0.00;0.00;;;;;;;;5105994;27;45427;-74
2023/01/07 04:40:34;;;;;;;;;1.00;1.00;;;;;;;;5096570;27;45439;-76
2023/01/07 04:43:00;;;;;;;;;0.00;0.00;;;;;;;;5116713;27;45916;-76
2023/01/07 04:45:25;;;;;;;;;0.50;0.50;;;;;;;;5118006;27;45359;-76
2023/01/07 04:47:53;;;;;;;;;0.00;0.00;;;;;;;;5116331;27;45364;-76
2023/01/07 04:50:18;;;;;;;;;1.00;1.00;;;;;;;;5109359;27;45549;-76
2023/01/07 04:52:44;;;;;;;;;1.75;0.50;;;;;;;;5116904;27;46052;-73
2023/01/07 04:55:09;;;;;;;;;0.00;0.00;;;;;;;;5117948;27;45405;-76
2023/01/07 04:57:35;;;;;;;;;1.75;0.00;;;;;;;;5118860;27;45687;-76
2023/01/07 05:00:00;;;;;;;;;1.00;1.00;;;;;;;;5118490;27;45352;-74
2023/01/07 05:02:25;;;;;;;;;0.50;0.50;;;;;;;;5109443;27;45569;-76
2023/01/07 05:04:50;;;;;;;;;0.00;0.00;;;;;;;;5097652;27;45288;-74
2023/01/07 05:07:16;;;;;;;;;0.75;0.75;;;;;;;;5116791;27;45473;-76
2023/01/07 05:09:41;;;;;;;;;0.50;0.50;;;;;;;;5118175;27;45350;-76
2023/01/07 05:12:06;;;;;;;;;1.00;1.00;;;;;;;;5108277;27;47182;-76
2023/01/07 05:14:31;;;;;;;;;0.00;0.00;;;;;;;;5104700;27;45400;-75
2023/01/07 05:16:57;;;;;;;;;0.25;0.25;;;;;;;;5104726;27;45655;-75
2023/01/07 05:19:22;;;;;;;;;1.00;0.00;;;;;;;;5117068;27;45406;-76
2023/01/07 05:21:47;;;;;;;;;0.75;0.75;;;;;;;;5118127;27;45516;-75
2023/01/07 05:24:12;;;;;;;;;1.00;1.00;;;;;;;;5117891;27;45374;-75
2023/01/07 05:26:38;;;;;;;;;1.25;1.25;;;;;;;;5112389;27;45770;-75
2023/01/07 05:29:03;;;;;;;;;2.50;1.25;;;;;;;;5117003;27;45636;-75
2023/01/07 05:31:28;;;;;;;;;2.00;1.00;;;;;;;;5117823;27;45353;-75
2023/01/07 05:33:54;;;;;;;;;1.50;1.00;;;;;;;;5117728;27;45548;-75
2023/01/07 05:36:19;;;;;;;;;1.50;1.50;;;;;;;;5117782;27;45350;-75
2023/01/07 05:38:44;;;;;;;;;2.25;2.25;;;;;;;;5117865;27;45514;-75
2023/01/07 05:41:10;;;;;;;;;2.00;1.75;;;;;;;;5114795;27;46863;-75
2023/01/07 05:43:35;;;;;;;;;0.50;0.50;;;;;;;;5108750;27;45404;-75
2023/01/07 05:46:00;;;;;;;;;2.50;2.50;;;;;;;;5117822;27;45356;-75
2023/01/07 05:48:25;;;;;;;;;4.00;2.75;;;;;;;;5117523;27;45387;-75
2023/01/07 05:50:51;;;;;;;;;3.00;1.25;;;;;;;;5115479;27;46932;-74
2023/01/07 05:53:16;;;;;;;;;2.75;2.75;;;;;;;;5110978;27;45468;-74
2023/01/07 05:55:41;;;;;;;;;2.25;2.25;;;;;;;;5118164;27;45509;-75
2023/01/07 05:58:07;;;;;;;;;1.75;1.00;;;;;;;;5115665;27;45526;-75
2023/01/07 06:00:32;;;;;;;;;2.00;2.00;;;;;;;;5118328;27;46315;-76
2023/01/07 06:02:57;;;;;;;;;2.50;2.50;;;;;;;;5118354;27;45534;-76
2023/01/07 06:05:23;;;;;;;;;3.50;3.00;;;;;;;;5116328;27;45394;-76
2023/01/07 06:07:48;;;;;;;;;2.75;2.25;;;;;;;;5108673;27;45323;-75
2023/01/07 06:10:13;;;;;;;;;4.00;4.00;;;;;;;;5117361;27;45304;-76
2023/01/07 06:12:38;;;;;;;;;5.50;4.00;;;;;;;;5116547;27;45356;-76
2023/01/07 06:15:06;;;;;;;;;3.00;3.00;;;;;;;;5117011;27;45392;-75
2023/01/07 06:17:31;;;;;;;;;4.50;2.75;;;;;;;;5116972;27;45331;-75
2023/01/07 06:19:56;;;;;;;;;2.00;2.00;;;;;;;;5116779;27;45991;-76
2023/01/07 06:22:21;;;;;;;;;2.25;2.25;;;;;;;;5115325;27;45428;-75
2023/01/07 06:24:47;;;;;;;;;3.25;3.25;;;;;;;;5116666;27;45315;-76
2023/01/07 06:27:12;;;;;;;;;3.50;3.00;;;;;;;;5116450;27;45212;-75
2023/01/07 06:29:37;;;;;;;;;5.00;2.25;;;;;;;;5116428;27;46299;-75
2023/01/07 06:32:02;;;;;;;;;4.00;3.00;;;;;;;;5116514;27;45241;-75
2023/01/07 06:34:28;;;;;;;;;3.00;3.00;;;;;;;;5116950;27;45353;-75
2023/01/07 06:36:53;;;;;;;;;3.75;2.75;;;;;;;;5116530;27;45207;-75
2023/01/07 06:39:18;;;;;;;;;3.00;3.00;;;;;;;;5116535;27;46475;-75
2023/01/07 06:41:43;;;;;;;;;4.00;4.00;;;;;;;;5115857;27;45300;-76
2023/01/07 06:44:08;;;;;;;;;2.25;2.25;;;;;;;;5116822;27;45274;-75
2023/01/07 06:46:34;;;;;;;;;3.75;3.75;;;;;;;;5116510;27;45458;-75
2023/01/07 06:48:59;;;;;;;;;3.00;3.00;;;;;;;;5116635;27;47113;-75
2023/01/07 06:51:24;;;;;;;;;3.00;2.75;;;;;;;;5115899;27;45404;-75
2023/01/07 06:53:49;;;;;;;;;2.00;2.00;;;;;;;;5116618;27;45355;-75
2023/01/07 06:56:15;;;;;;;;;4.00;3.00;;;;;;;;5116306;27;45539;-75
2023/01/07 06:58:40;;;;;;;;;4.00;4.00;;;;;;;;5115895;27;45443;-75
2023/01/07 07:01:06;;;;;;;;;2.75;2.75;;;;;;;;5116341;27;45528;-75
2023/01/07 07:03:31;;;;;;;;;3.00;3.00;;;;;;;;5116255;27;45452;-75
2023/01/07 07:05:56;;;;;;;;;3.50;2.00;;;;;;;;5115702;27;45334;-74
2023/01/07 07:08:21;;;;;;;;;3.25;3.25;;;;;;;;5116310;27;46245;-75
2023/01/07 07:10:47;;;;;;;;;4.00;2.75;;;;;;;;5116535;27;45319;-76
2023/01/07 07:13:12;;;;;;;;;4.25;3.75;;;;;;;;5116434;27;45388;-75
2023/01/07 07:15:37;;;;;;;;;3.00;2.00;;;;;;;;5116652;27;45394;-75
2023/01/07 07:18:03;;;;;;;;;2.25;2.25;;;;;;;;5116755;27;45505;-75
2023/01/07 07:20:28;;;;;;;;;3.00;3.00;;;;;;;;5116153;27;45429;-75
2023/01/07 07:22:53;;;;;;;;;4.00;2.00;;;;;;;;5116542;27;45363;-75
2023/01/07 07:25:18;;;;;;;;;2.00;2.00;;;;;;;;5116380;27;45416;-76
2023/01/07 07:27:45;;;;;;;;;3.00;3.00;;;;;;;;5115993;27;45321;-75
2023/01/07 07:30:10;;;;;;;;;4.00;2.00;;;;;;;;5115220;27;45404;-75
2023/01/07 07:32:35;;;;;;;;;2.00;2.00;;;;;;;;5115751;27;45436;-75
2023/01/07 07:35:01;;;;;;;;;3.00;3.00;;;;;;;;5115436;27;45427;-75
2023/01/07 07:37:26;;;;;;;;;2.00;2.00;;;;;;;;5115246;27;45698;-75
2023/01/07 07:39:51;;;;;;;;;3.50;3.25;;;;;;;;5115234;27;45520;-74
2023/01/07 07:42:17;;;;;;;;;4.00;2.00;;;;;;;;5115927;27;46078;-75
2023/01/07 07:44:42;;;;;;;;;3.00;3.00;;;;;;;;5115257;27;45341;-75
2023/01/07 07:47:07;;;;;;;;;1.00;1.00;;;;;;;;5115212;27;45382;-76
2023/01/07 07:49:32;;;;;;;;;3.00;2.75;;;;;;;;5115554;27;45396;-76
2023/01/07 07:51:57;;;;;;;;;3.00;3.00;;;;;;;;5115363;27;45328;-72
2023/01/07 07:54:23;;;;;;;;;4.00;3.00;;;;;;;;5117914;27;45726;-76
2023/01/07 07:56:48;;;;;;;;;3.00;3.00;;;;;;;;5118860;27;45675;-76
2023/01/07 07:59:13;;;;;;;;;2.25;2.25;;;;;;;;5119111;27;45328;-76
2023/01/07 08:01:38;;;;;;;;;3.50;3.50;;;;;;;;5119347;27;45354;-75
2023/01/07 08:04:03;;;;;;;;;2.00;2.00;;;;;;;;5118717;27;45793;-75
2023/01/07 08:06:29;;;;;;;;;4.00;4.00;;;;;;;;5117178;27;48232;-75
2023/01/07 08:08:54;;;;;;;;;3.75;3.75;;;;;;;;5118923;27;45378;-75
2023/01/07 08:11:19;;;;;;;;;4.25;3.75;;;;;;;;5118637;27;45468;-74
2023/01/07 08:13:45;;;;;;;;;2.00;2.00;;;;;;;;5118763;27;45367;-73
2023/01/07 08:16:10;;;;;;;;;3.00;3.00;;;;;;;;5118767;27;45402;-74
2023/01/07 08:18:35;;;;;;;;;2.50;2.00;;;;;;;;5118249;27;45599;-74
2023/01/07 08:21:00;;;;;;;;;4.00;3.00;;;;;;;;5118634;27;45434;-74
2023/01/07 08:23:26;;;;;;;;;3.75;3.75;;;;;;;;5119024;27;45363;-74
2023/01/07 08:25:52;;;;;;;;;3.50;3.50;;;;;;;;5118554;27;45493;-73
2023/01/07 08:28:17;;;;;;;;;4.50;4.50;;;;;;;;5118260;27;45465;-73
2023/01/07 08:30:42;;;;;;;;;1.75;1.25;;;;;;;;5118689;27;45488;-73
2023/01/07 08:33:07;;;;;;;;;1.00;1.00;;;;;;;;5118273;27;45316;-72
2023/01/07 08:35:33;;;;;;;;;4.25;3.75;;;;;;;;5118493;27;45433;-74
2023/01/07 08:38:02;;;;;;;;;3.75;3.00;;;;;;;;5117157;27;45385;-74
2023/01/07 08:40:27;;;;;;;;;2.75;1.75;;;;;;;;5118403;27;45568;-74
2023/01/07 08:42:56;;;;;;;;;3.25;2.50;;;;;;;;5118072;27;45307;-74
2023/01/07 08:45:21;;;;;;;;;3.50;3.50;;;;;;;;5118025;27;45592;-74
2023/01/07 08:47:47;;;;;;;;;4.25;4.25;;;;;;;;5117943;27;45553;-73
2023/01/07 08:50:12;;;;;;;;;7.00;5.75;;;;;;;;5118658;27;45407;-73
2023/01/07 08:52:37;;;;;;;;;2.00;2.00;;;;;;;;5118174;27;45688;-73
2023/01/07 08:55:02;;;;;;;;;3.00;3.00;;;;;;;;5118073;27;47083;-73
2023/01/07 08:57:28;;;;;;;;;3.75;3.75;;;;;;;;5115484;27;45554;-73
2023/01/07 08:59:53;;;;;;;;;4.50;3.25;;;;;;;;5110918;27;45440;-73
2023/01/07 09:02:18;;;;;;;;;4.00;3.00;;;;;;;;5118297;27;45286;-73
2023/01/07 09:04:44;;;;;;;;;5.75;4.75;;;;;;;;5118238;27;45786;-72
2023/01/07 09:07:09;;;;;;;;;2.75;2.75;;;;;;;;5100470;27;45884;-74
2023/01/07 09:09:35;;;;;;;;;2.00;2.00;;;;;;;;5120396;27;45281;-74
2023/01/07 09:12:01;;;;;;;;;4.25;4.00;;;;;;;;5119770;27;45382;-74
2023/01/07 09:14:26;;;;;;;;;18.50;17.25;;;;;;;;5118620;27;45492;-73
2023/01/07 09:16:51;;;;;;;;;5.00;4.00;;;;;;;;5116316;27;45443;-73
2023/01/07 09:19:16;;;;;;;;;4.00;3.00;;;;;;;;5118090;27;45494;-74
2023/01/07 09:21:41;;;;;;;;;3.75;3.75;;;;;;;;5117791;27;45660;-75
2023/01/07 09:24:07;;;;;;;;;3.25;3.25;;;;;;;;5116199;27;46470;-74
2023/01/07 09:26:32;;;;;;;;;5.00;4.00;;;;;;;;5112605;27;45480;-74
2023/01/07 09:28:57;;;;;;;;;4.75;4.00;;;;;;;;5121083;27;45509;-74
2023/01/07 09:31:23;;;;;;;;;7.00;6.00;;;;;;;;5129828;27;45403;-74
2023/01/07 09:33:48;;;;;;;;;6.00;4.25;;;;;;;;5118453;27;46535;-74
2023/01/07 09:36:13;;;;;;;;;3.00;3.00;;;;;;;;5125449;27;45355;-74
2023/01/07 09:38:38;;;;;;;;;4.25;4.25;;;;;;;;5127850;27;45372;-74
2023/01/07 09:41:05;;;;;;;;;3.00;3.00;;;;;;;;5126135;27;45568;-74
2023/01/07 09:43:35;;;;;;;;;3.25;3.25;;;;;;;;5127675;27;47178;-73
2023/01/07 09:46:01;;;;;;;;;3.00;3.00;;;;;;;;5116822;27;45489;-74
2023/01/07 09:48:26;;;;;;;;;3.00;3.00;;;;;;;;5120319;27;46052;-74
2023/01/07 09:50:54;;;;;;;;;3.00;3.00;;;;;;;;5126193;27;45292;-74
2023/01/07 09:53:25;;;;;;;;;3.50;3.50;;;;;;;;5120222;27;47455;-74
2023/01/07 09:55:51;;;;;;;;;4.00;4.00;;;;;;;;5120941;27;45425;-73
2023/01/07 09:58:18;;;;;;;;;4.00;4.00;;;;;;;;5117247;27;45481;-73
2023/01/07 10:00:53;;;;;;;;;3.25;3.25;;;;;;;;5114322;27;45484;-73
2023/01/07 10:03:19;;;;;;;;;4.00;4.00;;;;;;;;5129858;27;46625;-73
2023/01/07 10:05:48;;;;;;;;;4.25;4.25;;;;;;;;5113454;27;45879;-73
2023/01/07 10:08:19;;;;;;;;;5.50;4.50;;;;;;;;5121471;27;45341;-74
2023/01/07 10:10:54;;;;;;;;;2.75;2.25;;;;;;;;5126821;27;45612;-74
2023/01/07 10:13:38;;;;;;;;;4.25;3.00;;;;;;;;5123557;27;45466;-74
2023/01/07 10:16:18;;;;;;;;;4.75;4.00;;;;;;;;5126317;27;45391;-74
2023/01/07 10:19:02;;;;;;;;;7.00;6.00;;;;;;;;5113757;27;45365;-73
2023/01/07 10:21:42;;;;;;;;;3.00;3.00;;;;;;;;5116153;27;45584;-74
2023/01/07 10:24:23;;;;;;;;;6.50;5.25;;;;;;;;5133242;27;45425;-74
2023/01/07 10:26:51;;;;;;;;;4.75;4.00;;;;;;;;5123698;27;45698;-74
2023/01/07 10:29:20;;;;;;;;;3.75;3.50;;;;;;;;5121411;27;45778;-74
2023/01/07 10:31:47;;;;;;;;;4.25;3.75;;;;;;;;5126962;27;45476;-73
2023/01/07 10:34:14;;;;;;;;;5.25;4.50;;;;;;;;5108837;27;46179;-73
2023/01/07 10:36:45;;;;;;;;;24.50;23.25;;;;;;;;5115051;27;45824;-74
2023/01/07 10:39:29;;;;;;;;;3.00;3.00;;;;;;;;5127795;27;45368;-73
2023/01/07 10:42:08;;;;;;;;;4.75;3.75;;;;;;;;5118900;27;45630;-74
2023/01/07 10:44:52;;;;;;;;;3.00;3.00;;;;;;;;5127260;27;47249;-74
2023/01/07 10:47:32;;;;;;;;;3.75;3.75;;;;;;;;5109467;27;45460;-74
2023/01/07 10:50:08;;;;;;;;;3.00;3.00;;;;;;;;5121770;27;45751;-74
2023/01/07 10:52:56;;;;;;;;;3.00;3.00;;;;;;;;5128861;27;45336;-73
2023/01/07 10:55:25;;;;;;;;;4.00;4.00;;;;;;;;5109573;27;45612;-73
2023/01/07 10:57:50;;;;;;;;;4.00;3.00;;;;;;;;5112157;27;45516;-73
2023/01/07 11:00:16;;;;;;;;;40.50;35.25;;;;;;;;5116535;27;45360;-77
2023/01/07 11:02:43;;;;;;;;;3.00;3.00;;;;;;;;5127056;27;45399;-74
2023/01/07 11:05:11;;;;;;;;;4.00;3.75;;;;;;;;5123697;27;45426;-73
2023/01/07 11:07:36;;;;;;;;;4.00;4.00;;;;;;;;5130616;27;45466;-73
2023/01/07 11:10:04;;;;;;;;;3.00;3.00;;;;;;;;5116241;27;45477;-74
2023/01/07 11:12:47;;;;;;;;;2.00;2.00;;;;;;;;5119394;27;45407;-73
2023/01/07 11:15:15;;;;;;;;;0.00;0.00;;;;;;;;5118606;27;45645;-72
2023/01/07 11:17:52;;;;;;;;;2.50;2.25;;;;;;;;5119633;27;45514;-73
2023/01/07 11:20:36;;;;;;;;;3.75;3.25;;;;;;;;5104668;27;45390;-73
2023/01/07 11:23:15;;;;;;;;;3.00;3.00;;;;;;;;5118800;27;45391;-73
2023/01/07 11:25:41;;;;;;;;;2.50;2.50;;;;;;;;5112058;27;46316;-73
2023/01/07 11:28:16;;;;;;;;;3.50;3.00;;;;;;;;5132669;27;45322;-73
2023/01/07 11:30:42;;;;;;;;;3.00;3.00;;;;;;;;5127518;27;45470;-73
2023/01/07 11:33:16;;;;;;;;;2.00;2.00;;;;;;;;5125446;27;45456;-72
2023/01/07 11:35:49;;;;;;;;;7.00;7.00;;;;;;;;5120505;27;46503;-73
2023/01/07 11:38:29;;;;;;;;;5.00;4.00;;;;;;;;5117709;27;45548;-72
2023/01/07 11:40:56;;;;;;;;;6.50;5.75;;;;;;;;5129166;27;45449;-74
2023/01/07 11:43:22;;;;;;;;;2.50;2.25;;;;;;;;5132836;27;45372;-74
2023/01/07 11:45:49;;;;;;;;;3.50;3.50;;;;;;;;5114834;27;46296;-75
2023/01/07 11:48:14;;;;;;;;;2.50;2.50;;;;;;;;5111075;27;45547;-76
2023/01/07 11:50:53;;;;;;;;;4.25;3.75;;;;;;;;5130818;27;45590;-76
2023/01/07 11:53:18;;;;;;;;;4.00;3.00;;;;;;;;5125677;27;45402;-75
2023/01/07 11:56:00;;;;;;;;;3.00;3.00;;;;;;;;5135697;27;45480;-75
2023/01/07 11:58:28;;;;;;;;;4.00;3.25;;;;;;;;5112694;27;45466;-73
2023/01/07 12:01:02;;;;;;;;;2.75;2.75;;;;;;;;5118938;27;45365;-74
2023/01/07 12:03:27;;;;;;;;;4.50;3.25;;;;;;;;5133542;27;46500;-73
2023/01/07 12:05:57;;;;;;;;;4.25;3.75;;;;;;;;5122191;27;46006;-75
2023/01/07 12:08:25;;;;;;;;;3.75;3.75;;;;;;;;5131105;27;45274;-74
2023/01/07 12:10:55;;;;;;;;;5.00;5.00;;;;;;;;5120111;27;45586;-74
2023/01/07 12:13:24;;;;;;;;;2.25;2.25;;;;;;;;5121651;27;45737;-72
2023/01/07 12:15:56;;;;;;;;;2.50;2.00;;;;;;;;5119956;27;45604;-74
2023/01/07 12:18:36;;;;;;;;;1.75;1.75;;;;;;;;5129703;27;45597;-74
2023/01/07 12:21:04;;;;;;;;;3.25;3.25;;;;;;;;5128591;27;45481;-75
2023/01/07 12:23:43;;;;;;;;;3.00;2.25;;;;;;;;5111240;27;45543;-73
2023/01/07 12:26:20;;;;;;;;;3.00;2.00;;;;;;;;5112985;27;46489;-73
2023/01/07 12:28:48;;;;;;;;;3.00;3.00;;;;;;;;5128704;27;46628;-74
2023/01/07 12:31:21;;;;;;;;;4.25;4.00;;;;;;;;5130884;27;45428;-74
2023/01/07 12:33:50;;;;;;;;;3.00;3.00;;;;;;;;5119930;27;45702;-75
2023/01/07 12:36:35;;;;;;;;;3.75;3.75;;;;;;;;5118760;27;46286;-75
2023/01/07 12:39:02;;;;;;;;;5.50;4.50;;;;;;;;5126897;27;45397;-74
2023/01/07 12:41:33;;;;;;;;;4.75;4.75;;;;;;;;5123468;27;45378;-74
2023/01/07 12:44:14;;;;;;;;;2.75;2.75;;;;;;;;5135501;27;45313;-74
2023/01/07 12:46:44;;;;;;;;;4.00;3.00;;;;;;;;5130331;27;45417;-74
2023/01/07 12:49:19;;;;;;;;;3.00;3.00;;;;;;;;5116906;27;45499;-74
2023/01/07 12:51:49;;;;;;;;;4.75;3.25;;;;;;;;5115206;27;45717;-75
2023/01/07 12:54:32;;;;;;;;;3.25;3.25;;;;;;;;5133527;27;45379;-73
2023/01/07 12:57:24;;;;;;;;;2.75;2.75;;;;;;;;5117568;27;45513;-74
2023/01/07 12:59:52;;;;;;;;;4.50;4.25;;;;;;;;5109877;27;46047;-74
2023/01/07 13:02:37;;;;;;;;;4.50;4.00;;;;;;;;5121972;27;45309;-72
2023/01/07 13:05:14;;;;;;;;;3.50;3.50;;;;;;;;5126922;27;45435;-74
2023/01/07 13:07:39;;;;;;;;;5.00;3.75;;;;;;;;5131898;27;46956;-73
2023/01/07 13:10:11;;;;;;;;;7.50;4.00;;;;;;;;5128361;27;45716;-73
2023/01/07 13:12:46;;;;;;;;;3.50;3.50;;;;;;;;5130604;27;45465;-72
2023/01/07 13:15:21;;;;;;;;;3.75;3.75;;;;;;;;5129818;27;45464;-72
2023/01/07 13:17:47;;;;;;;;;3.75;3.75;;;;;;;;5118408;27;47690;-72
2023/01/07 13:20:13;;;;;;;;;3.50;3.50;;;;;;;;5116118;27;45671;-73
2023/01/07 13:22:39;;;;;;;;;4.25;4.25;;;;;;;;5125229;27;45686;-73
2023/01/07 13:25:11;;;;;;;;;4.00;2.25;;;;;;;;5124764;27;45403;-73
2023/01/07 13:27:42;;;;;;;;;4.00;4.00;;;;;;;;5117148;27;45323;-73
2023/01/07 13:30:07;;;;;;;;;3.00;2.00;;;;;;;;5134421;27;45385;-73
2023/01/07 13:32:44;;;;;;;;;2.25;2.25;;;;;;;;5124317;27;45431;-74
2023/01/07 13:35:12;;;;;;;;;5.75;5.00;;;;;;;;5125662;27;45411;-73
2023/01/07 13:37:40;;;;;;;;;4.25;4.25;;;;;;;;5132942;27;45339;-74
2023/01/07 13:40:08;;;;;;;;;5.25;4.50;;;;;;;;5120738;27;45442;-73
2023/01/07 13:42:39;;;;;;;;;3.25;3.25;;;;;;;;5128932;27;45393;-73
2023/01/07 13:45:10;;;;;;;;;4.00;3.00;;;;;;;;5124749;27;45474;-73
2023/01/07 13:47:38;;;;;;;;;4.00;4.00;;;;;;;;5132541;27;45530;-73
2023/01/07 13:50:03;;;;;;;;;5.00;5.00;;;;;;;;5119974;27;45360;-73
2023/01/07 13:52:31;;;;;;;;;5.25;4.75;;;;;;;;5128073;27;45940;-74
2023/01/07 13:54:58;;;;;;;;;6.25;6.25;;;;;;;;5127168;27;45384;-73
2023/01/07 13:57:23;;;;;;;;;5.00;3.75;;;;;;;;5122455;27;46289;-74
2023/01/07 13:59:54;;;;;;;;;4.75;4.75;;;;;;;;5129170;27;45327;-74
2023/01/07 14:02:20;;;;;;;;;4.00;3.00;;;;;;;;5120179;27;45463;-74
2023/01/07 14:04:51;;;;;;;;;4.25;4.25;;;;;;;;5127799;27;45491;-74
2023/01/07 14:07:18;;;;;;;;;7.50;4.75;;;;;;;;5115049;27;46270;-74
2023/01/07 14:09:44;;;;;;;;;6.00;6.00;;;;;;;;5122493;27;45528;-74
2023/01/07 14:12:12;;;;;;;;;3.50;3.50;;;;;;;;5102618;27;45760;-74
2023/01/07 14:14:47;;;;;;;;;6.00;5.00;;;;;;;;5128309;27;45375;-73
2023/01/07 14:17:15;;;;;;;;;5.50;4.75;;;;;;;;5128234;27;47513;-74
2023/01/07 14:19:40;;;;;;;;;5.00;4.00;;;;;;;;5118319;27;45397;-74
2023/01/07 14:22:21;;;;;;;;;3.00;3.00;;;;;;;;5126326;27;45272;-73
2023/01/07 14:25:12;;;;;;;;;2.75;2.75;;;;;;;;5126309;27;45482;-75
2023/01/07 14:27:49;;;;;;;;;4.75;4.75;;;;;;;;5127600;27;45307;-75
2023/01/07 14:30:24;;;;;;;;;4.00;4.00;;;;;;;;5103546;27;45434;-74
2023/01/07 14:32:58;;;;;;;;;2.75;2.75;;;;;;;;5124507;27;45493;-74
2023/01/07 14:35:44;;;;;;;;;5.00;4.50;;;;;;;;5119621;27;45733;-73
2023/01/07 14:38:27;;;;;;;;;4.50;3.25;;;;;;;;5098405;27;46341;-73
2023/01/07 14:41:01;;;;;;;;;5.00;5.00;;;;;;;;5111369;27;45314;-74
2023/01/07 14:43:42;;;;;;;;;5.00;5.00;;;;;;;;5129880;27;45416;-73
2023/01/07 14:46:08;;;;;;;;;6.25;5.00;;;;;;;;5118627;27;45604;-73
2023/01/07 14:48:34;;;;;;;;;5.75;5.75;;;;;;;;5128614;27;46325;-74
2023/01/07 14:51:11;;;;;;;;;7.00;7.00;;;;;;;;5126088;27;45435;-73
2023/01/07 14:53:45;;;;;;;;;4.00;4.00;;;;;;;;5119443;27;45318;-74
2023/01/07 14:56:11;;;;;;;;;6.50;6.00;;;;;;;;5100891;27;45275;-76